Ojibwa, Wisconsin
Current Conditions -  °F | °C
As of 11:55 PM on Saturday 22 Nov 2014 (Local Time) from KRCX Reporting Station
Moderate Fog Moderate Fog  
Wind Chill:   Ceiling: 200
Heat Index:   Visibility: 0.5mi
Dew Point:   Wind: 6mph
Humidity: 97%   Direction: 130°SE
Pressure: 29.61"   Gusts: NA
Location:  45.8°N, 91.12°W
Report Text: KRCX 230555Z AUTO 13005KT 1/2SM FG OVC002 03/03 A2961 RMK AO2 T00300026 10030 20018 400301018
Loading
Personal Weather Stations






























Interactive Weather Map New forecast layout! Learn more

10-Day Weather Forecast

Advertisements
Track Severe Weather on mobile